createdAt,value
2022-10-11T00:01:02.180Z,1.25
2022-10-11T00:03:30.130Z,1.50
2022-10-11T00:05:58.062Z,1.50
2022-10-11T00:08:25.967Z,1.50
2022-10-11T00:11:00.300Z,0.50
2022-10-11T00:13:28.431Z,1.50
2022-10-11T00:15:57.675Z,1.25
2022-10-11T00:18:25.572Z,1.00
2022-10-11T00:21:02.036Z,1.50
2022-10-11T00:23:29.880Z,1.00
2022-10-11T00:25:58.794Z,1.50
2022-10-11T00:28:26.745Z,1.00
2022-10-11T00:30:54.985Z,0.50
2022-10-11T00:33:24.281Z,1.00
2022-10-11T00:35:52.162Z,1.00
2022-10-11T00:38:20.001Z,0.50
2022-10-11T00:40:48.135Z,1.50
2022-10-11T00:43:16.755Z,0.50
2022-10-11T00:45:59.880Z,0.50
2022-10-11T00:48:31.775Z,0.75
2022-10-11T00:51:00.746Z,0.50
2022-10-11T00:53:29.403Z,1.50
2022-10-11T00:56:01.501Z,0.50
2022-10-11T00:58:29.691Z,0.50
2022-10-11T01:00:58.008Z,1.00
2022-10-11T01:03:26.193Z,0.50
2022-10-11T01:05:55.422Z,0.50
2022-10-11T01:08:23.269Z,0.50
2022-10-11T01:10:51.937Z,1.50
2022-10-11T01:13:24.545Z,0.50
2022-10-11T01:15:55.953Z,1.00
2022-10-11T01:18:26.494Z,0.50
2022-10-11T01:20:59.272Z,1.50
2022-10-11T01:23:50.004Z,0.75
2022-10-11T01:26:45.960Z,1.25
2022-10-11T01:29:15.171Z,1.50
2022-10-11T01:31:47.434Z,0.00
2022-10-11T01:34:16.302Z,0.00
2022-10-11T01:36:46.299Z,0.75
2022-10-11T01:39:15.904Z,0.75
2022-10-11T01:41:44.895Z,0.75
2022-10-11T01:44:12.803Z,1.75
2022-10-11T01:46:40.955Z,0.75
2022-10-11T01:49:10.583Z,1.25
2022-10-11T01:51:43.959Z,0.75
2022-10-11T01:55:03.951Z,0.00
2022-10-11T01:57:46.467Z,0.50
2022-10-11T02:00:15.586Z,1.00
2022-10-11T02:02:51.084Z,1.00
2022-10-11T02:05:24.825Z,0.50
2022-10-11T02:07:54.490Z,0.00
2022-10-11T02:10:25.115Z,1.75
2022-10-11T02:12:55.041Z,0.00
2022-10-11T02:15:22.931Z,0.75
2022-10-11T02:17:51.803Z,0.50
2022-10-11T02:20:23.364Z,0.50
2022-10-11T02:22:52.674Z,1.75
2022-10-11T02:25:22.765Z,0.50
2022-10-11T02:27:50.625Z,1.50
2022-10-11T02:30:18.818Z,1.50
2022-10-11T02:32:47.995Z,0.50
2022-10-11T02:35:15.944Z,0.75
2022-10-11T02:37:48.285Z,1.00
2022-10-11T02:40:17.724Z,1.00
2022-10-11T02:42:46.876Z,0.50
2022-10-11T02:45:16.022Z,0.50
2022-10-11T02:47:43.836Z,0.75
2022-10-11T02:50:11.929Z,1.50
2022-10-11T02:52:39.826Z,0.75
2022-10-11T02:55:10.522Z,0.75
2022-10-11T02:57:38.890Z,0.75
2022-10-11T03:00:10.341Z,1.00
2022-10-11T03:02:38.217Z,0.50
2022-10-11T03:05:06.419Z,1.00
2022-10-11T03:07:34.328Z,1.75
2022-10-11T03:10:02.447Z,1.00
2022-10-11T03:12:31.747Z,0.75
2022-10-11T03:14:59.663Z,1.75
2022-10-11T03:17:36.982Z,0.75
2022-10-11T03:20:06.004Z,0.75
2022-10-11T03:22:33.868Z,1.50
2022-10-11T03:25:04.432Z,0.75
2022-10-11T03:27:34.184Z,1.00
2022-10-11T03:30:02.344Z,1.75
2022-10-11T03:32:30.310Z,0.75
2022-10-11T03:34:58.483Z,0.75
2022-10-11T03:37:26.429Z,0.50
2022-10-11T03:39:54.288Z,0.75
2022-10-11T03:42:22.502Z,1.00
2022-10-11T03:44:52.062Z,1.25
2022-10-11T03:47:20.039Z,1.75
2022-10-11T03:49:48.212Z,0.75
2022-10-11T03:52:16.107Z,1.00
2022-10-11T03:54:43.971Z,0.50
2022-10-11T03:57:11.836Z,1.50
2022-10-11T03:59:39.647Z,0.75
2022-10-11T04:02:09.258Z,0.75
2022-10-11T04:04:37.215Z,0.75
2022-10-11T04:07:05.084Z,1.50
2022-10-11T04:09:32.951Z,0.50
2022-10-11T04:12:01.140Z,0.50
2022-10-11T04:14:29.201Z,0.75
2022-10-11T04:17:00.258Z,1.25
2022-10-11T04:19:29.966Z,1.00
2022-10-11T04:21:57.818Z,1.25
2022-10-11T04:24:26.061Z,0.67
2022-10-11T04:26:53.945Z,1.50
2022-10-11T04:29:21.805Z,0.50
2022-10-11T04:31:49.965Z,0.75
2022-10-11T04:34:17.879Z,0.75
2022-10-11T04:36:49.905Z,1.50
2022-10-11T04:39:18.939Z,1.75
2022-10-11T04:41:47.087Z,1.00
2022-10-11T04:44:14.923Z,1.00
2022-10-11T04:46:42.835Z,1.00
2022-10-11T04:49:11.069Z,1.25
2022-10-11T04:51:38.980Z,1.75
2022-10-11T04:54:08.259Z,0.50
2022-10-11T04:56:36.181Z,1.50
2022-10-11T04:59:04.049Z,0.75
2022-10-11T05:01:31.945Z,1.50
2022-10-11T05:03:59.848Z,1.50
2022-10-11T05:06:27.717Z,0.50
2022-10-11T05:08:55.656Z,1.00
2022-10-11T05:11:25.157Z,1.50
2022-10-11T05:13:53.057Z,1.00
2022-10-11T05:16:20.919Z,0.50
2022-10-11T05:18:48.773Z,1.50
2022-10-11T05:21:18.017Z,1.50
2022-10-11T05:23:46.079Z,1.75
2022-10-11T05:26:14.219Z,1.50
2022-10-11T05:28:43.518Z,1.50
2022-10-11T05:31:11.830Z,1.75
2022-10-11T05:33:39.677Z,1.50
2022-10-11T05:36:08.520Z,1.25
2022-10-11T05:38:36.927Z,1.00
2022-10-11T05:41:04.912Z,0.50
2022-10-11T05:43:32.881Z,0.50
2022-10-11T05:46:02.476Z,1.00
2022-10-11T05:48:30.972Z,1.75
2022-10-11T05:51:03.018Z,0.50
2022-10-11T05:53:30.941Z,1.75
2022-10-11T05:55:59.005Z,1.00
2022-10-11T05:58:27.030Z,1.50
2022-10-11T06:00:56.956Z,1.50
2022-10-11T06:03:26.410Z,1.50
2022-10-11T06:05:57.016Z,1.75
2022-10-11T06:08:25.298Z,1.50
2022-10-11T06:10:53.420Z,1.75
2022-10-11T06:13:21.712Z,1.50
2022-10-11T06:15:49.557Z,1.75
2022-10-11T06:18:17.496Z,1.50
2022-10-11T06:20:47.045Z,1.00
2022-10-11T06:23:14.944Z,1.75
2022-10-11T06:25:42.817Z,1.50
2022-10-11T06:28:10.826Z,1.50
2022-10-11T06:30:39.857Z,1.75
2022-10-11T06:33:07.733Z,1.50
2022-10-11T06:35:35.613Z,1.00
2022-10-11T06:38:04.953Z,1.50
2022-10-11T06:40:33.428Z,0.50
2022-10-11T06:43:01.313Z,1.00
2022-10-11T06:45:29.165Z,1.50
2022-10-11T06:47:57.016Z,1.50
2022-10-11T06:50:47.056Z,1.25
2022-10-11T06:53:14.552Z,1.00
2022-10-11T06:55:42.450Z,1.50
2022-10-11T06:58:10.340Z,1.50
2022-10-11T07:00:38.526Z,0.75
2022-10-11T07:03:06.451Z,0.50
2022-10-11T07:05:34.753Z,0.75
2022-10-11T07:08:02.728Z,1.50
2022-10-11T07:10:32.292Z,1.50
2022-10-11T07:13:00.124Z,1.50
2022-10-11T07:15:27.981Z,1.25
2022-10-11T07:17:55.823Z,0.50
2022-10-11T07:20:24.008Z,2.00
2022-10-11T07:22:51.881Z,1.50
2022-10-11T07:25:19.870Z,0.50
2022-10-11T07:27:49.119Z,1.50
2022-10-11T07:30:17.292Z,0.75
2022-10-11T07:32:45.119Z,1.25
2022-10-11T07:35:12.984Z,1.75
2022-10-11T07:37:40.842Z,0.50
2022-10-11T07:40:11.385Z,1.50
2022-10-11T07:42:39.396Z,1.00
2022-10-11T07:45:09.975Z,1.75
2022-10-11T07:47:37.891Z,0.50
2022-10-11T07:50:06.454Z,1.50
2022-10-11T07:52:34.542Z,1.50
2022-10-11T07:55:02.448Z,0.50
2022-10-11T07:57:30.296Z,1.75
2022-10-11T07:59:58.210Z,1.50
2022-10-11T08:02:27.670Z,1.00
2022-10-11T08:04:55.508Z,1.75
2022-10-11T08:07:23.345Z,1.50
2022-10-11T08:09:51.278Z,1.50
2022-10-11T08:12:19.410Z,2.00
2022-10-11T08:14:47.405Z,2.50
2022-10-11T08:17:15.301Z,0.75
2022-10-11T08:19:44.578Z,1.50
2022-10-11T08:22:12.694Z,1.50
2022-10-11T08:24:40.599Z,1.50
2022-10-11T08:27:08.477Z,1.50
2022-10-11T08:29:36.403Z,1.50
2022-10-11T08:32:04.678Z,2.25
2022-10-11T08:34:32.722Z,0.75
2022-10-11T08:37:01.950Z,2.00
2022-10-11T08:39:29.925Z,2.50
2022-10-11T08:41:59.838Z,1.75
2022-10-11T08:44:58.153Z,1.75
2022-10-11T08:47:25.146Z,2.50
2022-10-11T08:49:53.031Z,2.75
2022-10-11T08:52:23.232Z,1.75
2022-10-11T08:54:52.918Z,2.00
2022-10-11T08:57:21.540Z,3.25
2022-10-11T08:59:51.364Z,2.00
2022-10-11T09:02:49.233Z,2.75
2022-10-11T09:05:19.765Z,2.50
2022-10-11T09:07:51.772Z,2.00
2022-10-11T09:10:37.522Z,2.75
2022-10-11T09:13:09.380Z,3.00
2022-10-11T09:15:39.401Z,3.00
2022-10-11T09:18:25.327Z,3.00
2022-10-11T09:20:56.880Z,2.50
2022-10-11T09:23:39.881Z,3.00
2022-10-11T09:26:09.653Z,3.50
2022-10-11T09:28:44.996Z,3.25
2022-10-11T09:31:12.978Z,3.25
2022-10-11T09:33:42.532Z,3.00
2022-10-11T09:36:17.690Z,3.75
2022-10-11T09:38:50.475Z,4.00
2022-10-11T09:41:22.705Z,3.75
2022-10-11T09:43:51.388Z,3.50
2022-10-11T09:46:22.725Z,4.50
2022-10-11T09:48:50.637Z,4.50
2022-10-11T09:51:19.303Z,4.00
2022-10-11T09:53:56.495Z,3.50
2022-10-11T09:56:24.622Z,4.00
2022-10-11T09:59:08.154Z,3.50
2022-10-11T10:01:36.434Z,4.00
2022-10-11T10:04:11.018Z,3.75
2022-10-11T10:06:40.058Z,5.00
2022-10-11T10:09:27.308Z,3.75
2022-10-11T10:11:55.632Z,4.00
2022-10-11T10:14:25.795Z,4.75
2022-10-11T10:17:04.105Z,4.75
2022-10-11T10:19:35.258Z,4.00
2022-10-11T10:22:03.334Z,5.75
2022-10-11T10:24:38.344Z,5.50
2022-10-11T10:27:07.884Z,6.00
2022-10-11T10:29:36.985Z,3.50
2022-10-11T10:32:15.313Z,4.00
2022-10-11T10:34:53.824Z,4.00
2022-10-11T10:37:26.222Z,4.50
2022-10-11T10:39:57.119Z,6.00
2022-10-11T10:42:24.998Z,3.75
2022-10-11T10:44:54.215Z,5.50
2022-10-11T10:47:28.079Z,4.75
2022-10-11T10:49:58.483Z,5.50
2022-10-11T10:52:47.762Z,6.50
2022-10-11T10:55:23.004Z,5.50
2022-10-11T10:57:59.401Z,5.00
2022-10-11T11:00:27.280Z,4.75
2022-10-11T11:02:58.065Z,6.50
2022-10-11T11:05:40.052Z,5.75
2022-10-11T11:08:10.433Z,7.00
2022-10-11T11:10:41.383Z,5.00
2022-10-11T11:13:20.087Z,6.50
2022-10-11T11:15:51.251Z,5.50
2022-10-11T11:18:27.131Z,5.50
2022-10-11T11:21:18.334Z,6.50
2022-10-11T11:23:49.007Z,5.00
2022-10-11T11:26:21.553Z,5.75
2022-10-11T11:28:54.647Z,5.50
2022-10-11T11:31:30.407Z,5.75
2022-10-11T11:34:02.406Z,6.75
2022-10-11T11:36:39.651Z,5.75
2022-10-11T11:39:08.412Z,5.50
2022-10-11T11:41:39.448Z,6.00
2022-10-11T11:44:10.675Z,5.50
2022-10-11T11:46:40.996Z,6.50
2022-10-11T11:49:14.440Z,6.00
2022-10-11T11:51:43.842Z,5.50
2022-10-11T11:54:19.875Z,6.50
2022-10-11T11:56:54.609Z,6.00
2022-10-11T11:59:24.644Z,5.50
2022-10-11T12:01:56.675Z,6.50
2022-10-11T12:04:28.107Z,6.00
2022-10-11T12:07:15.800Z,6.25
2022-10-11T12:09:45.485Z,5.75
2022-10-11T12:12:29.077Z,6.25
2022-10-11T12:15:04.202Z,4.75
2022-10-11T12:17:32.150Z,5.75
2022-10-11T12:20:10.392Z,6.00
2022-10-11T12:22:54.122Z,5.50
2022-10-11T12:25:36.516Z,4.50
2022-10-11T12:28:44.191Z,5.00
2022-10-11T12:31:20.705Z,5.50
2022-10-11T12:33:53.982Z,5.50
2022-10-11T12:36:34.122Z,6.00
2022-10-11T12:39:51.659Z,5.75
2022-10-11T12:42:28.271Z,5.50
2022-10-11T12:45:35.386Z,5.50
2022-10-11T12:48:37.236Z,5.50
2022-10-11T12:51:21.020Z,5.25
2022-10-11T12:54:24.968Z,5.25
2022-10-11T12:56:50.087Z,6.25
2022-10-11T12:59:19.580Z,5.50
2022-10-11T13:01:53.278Z,6.50
2022-10-11T13:04:22.336Z,5.75
2022-10-11T13:06:51.043Z,5.75
2022-10-11T13:09:24.677Z,5.50
2022-10-11T13:11:54.705Z,5.25
2022-10-11T13:14:23.222Z,5.25
2022-10-11T13:17:05.422Z,5.50
2022-10-11T13:19:34.409Z,4.50
2022-10-11T13:22:03.636Z,5.50
2022-10-11T13:24:36.641Z,5.00
2022-10-11T13:27:04.745Z,5.50
2022-10-11T13:29:33.755Z,4.50
2022-10-11T13:32:04.622Z,4.50
2022-10-11T13:34:35.243Z,5.50
2022-10-11T13:37:03.350Z,6.25
2022-10-11T13:39:31.894Z,5.50
2022-10-11T13:42:00.168Z,5.50
2022-10-11T13:44:28.081Z,6.00
2022-10-11T13:46:56.022Z,5.25
2022-10-11T13:49:37.500Z,5.50
2022-10-11T13:52:08.091Z,5.50
2022-10-11T13:54:55.167Z,5.50
2022-10-11T13:57:23.109Z,5.00
2022-10-11T13:59:50.995Z,5.75
2022-10-11T14:02:23.810Z,5.50
2022-10-11T14:04:53.532Z,4.75
2022-10-11T14:07:24.125Z,5.25
2022-10-11T14:09:53.700Z,6.00
2022-10-11T14:12:30.732Z,5.50
2022-10-11T14:14:58.645Z,6.75
2022-10-11T14:17:40.664Z,7.25
2022-10-11T14:20:15.996Z,5.75
2022-10-11T14:22:43.955Z,6.50
2022-10-11T14:25:11.856Z,6.50
2022-10-11T14:27:40.039Z,5.25
2022-10-11T14:30:30.935Z,5.75
2022-10-11T14:33:00.714Z,6.00
2022-10-11T14:35:31.003Z,6.75
2022-10-11T14:37:59.035Z,6.25
2022-10-11T14:40:28.524Z,5.25
2022-10-11T14:42:56.670Z,6.75
2022-10-11T14:45:24.575Z,7.75
2022-10-11T14:47:52.508Z,6.75
2022-10-11T14:50:26.446Z,6.50
2022-10-11T14:52:55.721Z,7.75
2022-10-11T14:55:24.508Z,6.75
2022-10-11T14:57:52.862Z,6.50
2022-10-11T15:00:22.353Z,5.50
2022-10-11T15:02:50.476Z,7.00
2022-10-11T15:05:18.910Z,7.75
2022-10-11T15:07:46.741Z,6.50
2022-10-11T15:10:21.815Z,5.75
2022-10-11T15:12:49.718Z,7.00
2022-10-11T15:15:20.506Z,7.50
2022-10-11T15:17:49.290Z,7.25
2022-10-11T15:20:24.246Z,5.75
2022-10-11T15:22:52.074Z,6.50
2022-10-11T15:25:21.327Z,5.75
2022-10-11T15:27:49.180Z,6.00
2022-10-11T15:30:19.412Z,7.50
2022-10-11T15:32:47.306Z,7.50
2022-10-11T15:35:15.234Z,7.00
2022-10-11T15:37:43.242Z,7.75
2022-10-11T15:40:19.796Z,6.50
2022-10-11T15:42:49.067Z,8.00
2022-10-11T15:45:17.059Z,5.75
2022-10-11T15:47:45.079Z,7.25
2022-10-11T15:50:23.888Z,6.50
2022-10-11T15:52:52.209Z,5.75
2022-10-11T15:55:20.113Z,6.75
2022-10-11T15:57:49.401Z,7.50
2022-10-11T16:00:22.144Z,7.50
2022-10-11T16:02:51.843Z,6.75
2022-10-11T16:05:20.127Z,6.75
2022-10-11T16:07:48.115Z,6.50
2022-10-11T16:10:16.490Z,7.50
2022-10-11T16:12:44.400Z,7.00
2022-10-11T16:15:13.754Z,6.50
2022-10-11T16:17:41.611Z,6.50
2022-10-11T16:20:10.007Z,8.25
2022-10-11T16:22:37.874Z,5.75
2022-10-11T16:25:06.345Z,5.50
2022-10-11T16:27:34.531Z,7.50
2022-10-11T16:30:03.049Z,7.50
2022-10-11T16:32:33.077Z,6.00
2022-10-11T16:35:00.997Z,6.50
2022-10-11T16:37:28.915Z,7.25
2022-10-11T16:39:56.850Z,7.00
2022-10-11T16:42:24.798Z,6.75
2022-10-11T16:44:52.658Z,6.50
2022-10-11T16:47:33.459Z,6.00
2022-10-11T16:50:05.504Z,6.50
2022-10-11T16:52:36.006Z,6.25
2022-10-11T16:55:04.059Z,5.00
2022-10-11T16:57:31.944Z,6.25
2022-10-11T16:59:59.851Z,6.50
2022-10-11T17:02:32.321Z,6.00
2022-10-11T17:05:02.361Z,5.50
2022-10-11T17:07:30.235Z,6.75
2022-10-11T17:09:58.164Z,6.25
2022-10-11T17:12:26.042Z,6.00
2022-10-11T17:14:54.680Z,5.50
2022-10-11T17:17:22.580Z,6.75
2022-10-11T17:19:50.645Z,7.00
2022-10-11T17:22:20.669Z,6.25
2022-10-11T17:24:48.943Z,6.75
2022-10-11T17:27:17.112Z,7.25
2022-10-11T17:29:45.024Z,6.50
2022-10-11T17:32:12.965Z,7.25
2022-10-11T17:34:41.274Z,7.50
2022-10-11T17:37:10.102Z,6.50
2022-10-11T17:39:39.452Z,7.50
2022-10-11T17:42:07.614Z,7.25
2022-10-11T17:44:36.716Z,7.50
2022-10-11T17:47:04.625Z,8.00
2022-10-11T17:49:32.773Z,7.50
2022-10-11T17:52:00.636Z,7.50
2022-10-11T17:54:28.780Z,7.50
2022-10-11T17:56:58.294Z,7.50
2022-10-11T17:59:27.555Z,6.50
2022-10-11T18:01:55.603Z,7.50
2022-10-11T18:04:26.854Z,7.50
2022-10-11T18:06:54.743Z,7.50
2022-10-11T18:09:23.737Z,6.50
2022-10-11T18:11:51.679Z,6.75
2022-10-11T18:14:21.310Z,7.50
2022-10-11T18:16:49.212Z,7.50
2022-10-11T18:19:17.152Z,7.50
2022-10-11T18:21:45.013Z,7.50
2022-10-11T18:24:15.035Z,6.50
2022-10-11T18:26:43.244Z,8.00
2022-10-11T18:29:12.445Z,7.50
2022-10-11T18:31:41.941Z,8.50
2022-10-11T18:34:11.264Z,7.75
2022-10-11T18:36:39.154Z,6.50
2022-10-11T18:39:08.665Z,8.25
2022-10-11T18:41:36.541Z,7.50
2022-10-11T18:44:05.670Z,6.75
2022-10-11T18:46:33.736Z,8.50
2022-10-11T18:49:03.026Z,7.50
2022-10-11T18:51:31.688Z,7.75
2022-10-11T18:53:59.687Z,6.50
2022-10-11T18:56:28.147Z,8.50
2022-10-11T18:58:56.710Z,7.50
2022-10-11T19:01:25.404Z,7.50
2022-10-11T19:03:54.269Z,8.50
2022-10-11T19:06:25.071Z,7.75
2022-10-11T19:08:53.944Z,7.50
2022-10-11T19:11:22.300Z,6.50
2022-10-11T19:13:50.216Z,7.50
2022-10-11T19:16:18.605Z,8.50
2022-10-11T19:18:49.704Z,7.25
2022-10-11T19:21:17.546Z,7.50
2022-10-11T19:23:47.456Z,6.75
2022-10-11T19:26:16.352Z,7.00
2022-10-11T19:28:44.565Z,6.50
2022-10-11T19:31:16.245Z,6.50
2022-10-11T19:33:44.250Z,7.50
2022-10-11T19:36:13.018Z,7.00
2022-10-11T19:38:41.022Z,7.50
2022-10-11T19:41:10.327Z,6.00
2022-10-11T19:43:38.231Z,7.75
2022-10-11T19:46:07.564Z,7.00
2022-10-11T19:48:37.168Z,7.50
2022-10-11T19:51:05.386Z,7.50
2022-10-11T19:53:33.307Z,8.00
2022-10-11T19:56:02.497Z,7.50
2022-10-11T19:58:31.832Z,7.50
2022-10-11T20:01:03.780Z,8.50
2022-10-11T20:03:31.664Z,7.25
2022-10-11T20:06:00.792Z,8.50
2022-10-11T20:08:31.253Z,7.50
2022-10-11T20:10:59.400Z,8.50
2022-10-11T20:13:30.055Z,6.75
2022-10-11T20:16:04.778Z,7.50
2022-10-11T20:18:32.678Z,6.75
2022-10-11T20:21:03.282Z,7.00
2022-10-11T20:23:31.320Z,7.75
2022-10-11T20:26:00.426Z,8.50
2022-10-11T20:28:28.553Z,6.50
2022-10-11T20:30:56.492Z,6.75
2022-10-11T20:33:25.911Z,6.50
2022-10-11T20:36:00.798Z,7.50
2022-10-11T20:38:28.913Z,8.25
2022-10-11T20:40:56.766Z,6.25
2022-10-11T20:43:24.908Z,7.00
2022-10-11T20:46:00.139Z,6.75
2022-10-11T20:48:29.526Z,7.50
2022-10-11T20:50:57.468Z,8.00
2022-10-11T20:53:25.429Z,7.25
2022-10-11T20:55:53.604Z,7.50
2022-10-11T20:58:21.445Z,6.50
2022-10-11T21:00:49.405Z,7.50
2022-10-11T21:03:17.463Z,7.75
2022-10-11T21:05:47.115Z,7.75
2022-10-11T21:08:15.182Z,7.75
2022-10-11T21:10:52.014Z,7.50
2022-10-11T21:13:19.994Z,8.75
2022-10-11T21:15:48.190Z,8.50
2022-10-11T21:18:16.395Z,8.50
2022-10-11T21:20:46.055Z,8.00
2022-10-11T21:23:14.294Z,7.25
2022-10-11T21:25:42.636Z,7.50
2022-10-11T21:28:10.499Z,7.75
2022-10-11T21:30:38.467Z,7.50
2022-10-11T21:33:06.324Z,8.50
2022-10-11T21:35:34.464Z,7.00
2022-10-11T21:38:03.694Z,6.50
2022-10-11T21:40:31.605Z,7.50
2022-10-11T21:42:59.681Z,8.25
2022-10-11T21:45:27.890Z,7.50
2022-10-11T21:47:56.013Z,8.50
2022-10-11T21:50:24.038Z,8.00
2022-10-11T21:52:51.905Z,8.75
2022-10-11T21:55:21.750Z,8.50
2022-10-11T21:57:49.803Z,8.00
2022-10-11T22:00:17.729Z,9.50
2022-10-11T22:02:45.714Z,9.50
2022-10-11T22:05:13.970Z,8.75
2022-10-11T22:07:41.950Z,9.50
2022-10-11T22:10:09.976Z,9.50
2022-10-11T22:12:39.235Z,9.00
2022-10-11T22:15:10.043Z,10.25
2022-10-11T22:17:37.896Z,9.50
2022-10-11T22:20:06.361Z,9.75
2022-10-11T22:22:34.625Z,9.75
2022-10-11T22:25:02.993Z,9.25
2022-10-11T22:27:30.960Z,8.00
2022-10-11T22:30:00.284Z,8.75
2022-10-11T22:32:28.158Z,9.50
2022-10-11T22:34:56.385Z,7.50
2022-10-11T22:37:24.446Z,8.50
2022-10-11T22:39:52.426Z,8.50
2022-10-11T22:42:24.113Z,8.25
2022-10-11T22:44:54.905Z,9.00
2022-10-11T22:47:24.126Z,8.25
2022-10-11T22:49:52.016Z,9.50
2022-10-11T22:52:19.983Z,8.50
2022-10-11T22:54:48.136Z,8.50
2022-10-11T22:57:16.011Z,8.00
2022-10-11T22:59:43.920Z,8.50
2022-10-11T23:02:11.752Z,7.75
2022-10-11T23:04:41.288Z,8.00
2022-10-11T23:07:09.167Z,7.75
2022-10-11T23:09:37.026Z,8.50
2022-10-11T23:12:05.257Z,7.75
2022-10-11T23:14:33.509Z,8.75
2022-10-11T23:17:01.402Z,8.00
2022-10-11T23:19:29.289Z,7.50
2022-10-11T23:21:58.617Z,7.50
2022-10-11T23:24:26.862Z,9.00
2022-10-11T23:26:54.790Z,8.75
2022-10-11T23:29:22.689Z,8.75
2022-10-11T23:31:51.610Z,7.75
2022-10-11T23:34:19.768Z,7.75
2022-10-11T23:36:47.664Z,8.50
2022-10-11T23:39:17.024Z,7.75
2022-10-11T23:41:44.886Z,8.00
2022-10-11T23:44:13.104Z,8.00
2022-10-11T23:46:40.977Z,7.00
2022-10-11T23:49:08.904Z,7.75
2022-10-11T23:51:36.852Z,7.75
2022-10-11T23:54:05.043Z,7.25
2022-10-11T23:56:34.300Z,8.00
2022-10-11T23:59:02.217Z,7.75
